createdAt,value
2019-04-05T00:01:26.040Z,45.80
2019-04-05T00:03:56.638Z,48.68
2019-04-05T00:06:27.385Z,57.00
2019-04-05T00:08:57.968Z,53.48
2019-04-05T00:11:28.754Z,52.27
2019-04-05T00:13:59.329Z,54.27
2019-04-05T00:16:30.004Z,55.12
2019-04-05T00:19:00.638Z,59.58
2019-04-05T00:21:31.267Z,57.93
2019-04-05T00:24:01.852Z,58.65
2019-04-05T00:26:32.455Z,62.10
2019-04-05T00:29:03.041Z,61.33
2019-04-05T00:31:33.631Z,55.25
2019-04-05T00:34:04.223Z,55.67
2019-04-05T00:36:34.818Z,53.87
2019-04-05T00:39:08.120Z,57.43
2019-04-05T00:41:39.664Z,53.65
2019-04-05T00:44:10.223Z,57.03
2019-04-05T00:46:40.801Z,52.33
2019-04-05T00:49:11.407Z,54.15
2019-04-05T00:51:42.012Z,52.85
2019-04-05T00:54:12.592Z,54.88
2019-04-05T00:56:44.396Z,55.92
2019-04-05T00:59:16.434Z,56.65
2019-04-05T01:01:47.092Z,56.53
2019-04-05T01:04:18.811Z,54.90
2019-04-05T01:06:49.431Z,56.00
2019-04-05T01:09:20.019Z,56.40
2019-04-05T01:11:50.820Z,56.05
2019-04-05T01:14:22.621Z,62.38
2019-04-05T01:16:53.325Z,59.25
2019-04-05T01:19:27.719Z,56.37
2019-04-05T01:21:59.814Z,61.80
2019-04-05T01:24:30.712Z,61.00
2019-04-05T01:27:01.728Z,63.10
2019-04-05T01:29:33.344Z,54.93
2019-04-05T01:32:04.062Z,59.45
2019-04-05T01:34:34.649Z,57.23
2019-04-05T01:37:08.135Z,62.08
2019-04-05T01:39:38.749Z,53.20
2019-04-05T01:42:09.457Z,56.58
2019-04-05T01:44:40.753Z,59.18
2019-04-05T01:47:11.351Z,60.10
2019-04-05T01:49:43.733Z,58.65
2019-04-05T01:52:14.830Z,58.98
2019-04-05T01:54:46.884Z,56.25
2019-04-05T01:57:17.531Z,59.93
2019-04-05T01:59:49.899Z,56.63
2019-04-05T02:02:20.513Z,55.08
2019-04-05T02:04:52.947Z,54.95
2019-04-05T02:07:23.749Z,57.80
2019-04-05T02:09:56.433Z,54.75
2019-04-05T02:12:27.056Z,59.15
2019-04-05T02:14:57.752Z,59.42
2019-04-05T02:17:28.467Z,64.45
2019-04-05T02:19:59.051Z,59.90
2019-04-05T02:22:29.750Z,66.22
2019-04-05T02:25:02.422Z,68.12
2019-04-05T02:27:33.073Z,69.80
2019-04-05T02:30:05.160Z,70.17
2019-04-05T02:32:35.909Z,69.47
2019-04-05T02:35:08.159Z,76.35
2019-04-05T02:37:40.009Z,70.85
2019-04-05T02:40:14.464Z,73.15
2019-04-05T02:42:49.942Z,77.47
2019-04-05T02:45:23.103Z,80.37
2019-04-05T02:47:59.319Z,81.37
2019-04-05T02:50:34.686Z,80.03
2019-04-05T02:53:09.323Z,77.72
2019-04-05T02:55:43.243Z,74.58
2019-04-05T02:58:15.763Z,79.92
2019-04-05T03:00:47.967Z,74.62
2019-04-05T03:03:18.840Z,77.67
2019-04-05T03:05:49.819Z,72.53
2019-04-05T03:08:21.887Z,71.47
2019-04-05T03:11:05.966Z,72.35
2019-04-05T03:13:49.474Z,75.40
2019-04-05T03:16:40.820Z,72.27
2019-04-05T03:19:33.902Z,70.57
2019-04-05T03:22:09.152Z,70.75
2019-04-05T03:24:44.305Z,73.62
2019-04-05T03:27:27.476Z,75.28
2019-04-05T03:30:01.084Z,76.75
2019-04-05T03:32:33.569Z,69.85
2019-04-05T03:35:04.574Z,73.17
2019-04-05T03:37:36.681Z,72.50
2019-04-05T03:40:09.199Z,73.33
2019-04-05T03:42:40.418Z,71.60
2019-04-05T03:45:11.066Z,73.35
2019-04-05T03:47:41.902Z,71.90
2019-04-05T03:50:12.868Z,77.10
2019-04-05T03:52:44.322Z,66.07
2019-04-05T03:55:15.071Z,67.85
2019-04-05T03:57:47.264Z,66.90
2019-04-05T04:00:19.287Z,64.43
2019-04-05T04:02:50.077Z,67.45
2019-04-05T04:05:21.786Z,72.67
2019-04-05T04:07:54.078Z,62.23
2019-04-05T04:10:28.115Z,72.35
2019-04-05T04:12:58.913Z,67.27
2019-04-05T04:15:30.928Z,66.77
2019-04-05T04:18:01.855Z,69.27
2019-04-05T04:20:47.709Z,72.82
2019-04-05T04:23:19.458Z,69.30
2019-04-05T04:25:51.921Z,69.10
2019-04-05T04:28:23.070Z,67.97
2019-04-05T04:30:54.449Z,68.83
2019-04-05T04:33:26.803Z,69.80
2019-04-05T04:36:04.375Z,69.37
2019-04-05T04:38:35.151Z,70.47
2019-04-05T04:41:05.916Z,67.70
2019-04-05T04:43:37.759Z,68.55
2019-04-05T04:46:10.665Z,64.40
2019-04-05T04:48:42.600Z,65.40
2019-04-05T04:51:14.372Z,66.77
2019-04-05T04:53:45.652Z,64.07
2019-04-05T04:56:16.675Z,61.45
2019-04-05T04:58:47.742Z,67.60
2019-04-05T05:01:18.829Z,69.12
2019-04-05T05:03:49.988Z,63.63
2019-04-05T05:06:20.863Z,64.17
2019-04-05T05:08:51.564Z,65.37
2019-04-05T05:11:23.873Z,64.22
2019-04-05T05:13:56.101Z,67.50
2019-04-05T05:16:26.890Z,66.50
2019-04-05T05:18:57.754Z,69.85
2019-04-05T05:21:28.553Z,70.87
2019-04-05T05:23:59.169Z,69.40
2019-04-05T05:26:30.262Z,68.72
2019-04-05T05:29:01.222Z,65.40
2019-04-05T05:31:32.427Z,69.22
2019-04-05T05:34:05.115Z,64.22
2019-04-05T05:36:36.512Z,66.00
2019-04-05T05:39:09.517Z,70.60
2019-04-05T05:41:40.108Z,68.05
2019-04-05T05:44:12.116Z,67.50
2019-04-05T05:46:45.480Z,69.27
2019-04-05T05:49:17.202Z,66.07
2019-04-05T05:51:48.815Z,76.50
2019-04-05T05:54:19.382Z,71.60
2019-04-05T05:56:50.038Z,66.75
2019-04-05T05:59:20.589Z,65.57
2019-04-05T06:01:52.679Z,67.17
2019-04-05T06:04:23.275Z,68.72
2019-04-05T06:06:53.847Z,69.12
2019-04-05T06:09:24.450Z,64.45
2019-04-05T06:11:55.102Z,64.17
2019-04-05T06:14:27.499Z,68.80
2019-04-05T06:16:58.127Z,69.42
2019-04-05T06:19:28.851Z,65.10
2019-04-05T06:21:59.533Z,69.87
2019-04-05T06:24:30.184Z,67.35
2019-04-05T06:27:02.802Z,72.75
2019-04-05T06:29:34.559Z,70.08
2019-04-05T06:32:05.209Z,67.05
2019-04-05T06:34:35.906Z,69.47
2019-04-05T06:37:06.639Z,63.38
2019-04-05T06:39:37.241Z,65.62
2019-04-05T06:42:07.825Z,69.50
2019-04-05T06:44:39.528Z,58.87
2019-04-05T06:47:13.049Z,66.70
2019-04-05T06:49:43.619Z,70.12
2019-04-05T06:52:14.178Z,67.92
2019-04-05T06:54:44.778Z,65.62
2019-04-05T06:57:17.298Z,64.70
2019-04-05T06:59:49.113Z,70.22
2019-04-05T07:02:19.731Z,70.45
2019-04-05T07:04:50.421Z,71.33
2019-04-05T07:07:20.988Z,63.58
2019-04-05T07:09:52.804Z,64.50
2019-04-05T07:12:25.204Z,62.27
2019-04-05T07:14:56.373Z,64.72
2019-04-05T07:17:27.216Z,66.02
2019-04-05T07:19:57.799Z,65.83
2019-04-05T07:22:38.529Z,61.63
2019-04-05T07:25:00.785Z,59.18
2019-04-05T07:27:31.330Z,60.67
2019-04-05T07:30:02.291Z,57.93
2019-04-05T07:32:32.921Z,58.98
2019-04-05T07:35:03.699Z,63.92
2019-04-05T07:37:35.485Z,59.95
2019-04-05T07:40:07.915Z,63.28
2019-04-05T07:42:38.558Z,63.55
2019-04-05T07:45:09.706Z,64.55
2019-04-05T07:47:40.356Z,65.17
2019-04-05T07:50:11.522Z,57.85
2019-04-05T07:52:42.195Z,59.35
2019-04-05T07:55:14.180Z,61.13
2019-04-05T07:57:45.849Z,57.75
2019-04-05T08:00:47.416Z,55.23
2019-04-05T08:03:18.558Z,54.45
2019-04-05T08:05:50.611Z,55.70
2019-04-05T08:09:08.401Z,56.55
2019-04-05T08:11:40.957Z,55.58
2019-04-05T08:14:13.105Z,54.00
2019-04-05T08:16:43.958Z,54.88
2019-04-05T08:19:14.533Z,54.85
2019-04-05T08:21:45.230Z,54.10
2019-04-05T08:24:15.794Z,54.83
2019-04-05T08:26:46.469Z,50.35
2019-04-05T08:29:18.548Z,56.85
2019-04-05T08:31:49.169Z,54.58
2019-04-05T08:34:19.927Z,54.30
2019-04-05T08:36:51.711Z,53.92
2019-04-05T08:39:22.311Z,57.40
2019-04-05T08:41:53.930Z,57.88
2019-04-05T08:44:24.552Z,57.95
2019-04-05T08:46:55.239Z,60.65
2019-04-05T08:49:25.829Z,57.27
2019-04-05T08:51:56.428Z,54.85
2019-04-05T08:54:32.694Z,55.15
2019-04-05T08:56:59.297Z,55.10
2019-04-05T08:59:30.959Z,65.05
2019-04-05T09:02:03.003Z,53.30
2019-04-05T09:04:33.562Z,55.03
2019-04-05T09:07:04.191Z,62.73
2019-04-05T09:09:34.757Z,52.88
2019-04-05T09:12:05.385Z,61.18
2019-04-05T09:14:37.158Z,52.60
2019-04-05T09:17:07.775Z,54.88
2019-04-05T09:19:38.447Z,57.43
2019-04-05T09:22:09.041Z,54.90
2019-04-05T09:24:39.715Z,54.20
2019-04-05T09:27:10.410Z,56.25
2019-04-05T09:29:40.991Z,52.10
2019-04-05T09:32:11.594Z,58.98
2019-04-05T09:34:42.268Z,57.25
2019-04-05T09:37:12.877Z,55.95
2019-04-05T09:39:43.669Z,60.20
2019-04-05T09:42:15.396Z,61.35
2019-04-05T09:44:46.052Z,61.48
2019-04-05T09:47:16.659Z,59.30
2019-04-05T09:49:47.339Z,60.78
2019-04-05T09:52:18.064Z,64.05
2019-04-05T09:54:48.653Z,59.03
2019-04-05T09:57:19.229Z,57.08
2019-04-05T09:59:51.357Z,57.40
2019-04-05T10:02:21.957Z,54.93
2019-04-05T10:04:52.520Z,60.58
2019-04-05T10:07:23.225Z,57.10
2019-04-05T10:09:53.906Z,58.70
2019-04-05T10:12:24.526Z,57.53
2019-04-05T10:14:55.205Z,54.63
2019-04-05T10:17:27.258Z,53.13
2019-04-05T10:19:57.921Z,58.10
2019-04-05T10:22:28.555Z,56.58
2019-04-05T10:24:59.100Z,57.10
2019-04-05T10:27:29.757Z,52.98
2019-04-05T10:30:00.611Z,57.00
2019-04-05T10:32:31.185Z,58.80
2019-04-05T10:35:03.100Z,57.30
2019-04-05T10:37:33.651Z,53.60
2019-04-05T10:40:06.324Z,54.15
2019-04-05T10:42:38.481Z,56.18
2019-04-05T10:45:11.388Z,54.75
2019-04-05T10:47:42.462Z,53.00
2019-04-05T10:50:15.415Z,53.83
2019-04-05T10:52:46.015Z,54.95
2019-04-05T10:55:17.578Z,53.80
2019-04-05T10:57:48.548Z,52.23
2019-04-05T11:00:21.555Z,48.68
2019-04-05T11:02:52.140Z,55.60
2019-04-05T11:05:24.519Z,61.10
2019-04-05T11:07:56.647Z,54.25
2019-04-05T11:10:27.206Z,54.40
2019-04-05T11:12:59.638Z,52.93
2019-04-05T11:15:31.001Z,54.42
2019-04-05T11:18:04.680Z,55.73
2019-04-05T11:20:35.408Z,53.73
2019-04-05T11:23:06.028Z,56.48
2019-04-05T11:25:36.634Z,58.13
2019-04-05T11:28:07.276Z,57.65
2019-04-05T11:30:59.363Z,63.05
2019-04-05T11:33:30.061Z,59.65
2019-04-05T11:36:00.935Z,60.60
2019-04-05T11:38:32.063Z,53.50
2019-04-05T11:41:04.235Z,54.35
2019-04-05T11:43:37.548Z,53.55
2019-04-05T11:46:08.206Z,61.83
2019-04-05T11:48:41.328Z,60.60
2019-04-05T11:51:12.176Z,62.13
2019-04-05T11:53:42.886Z,62.80
2019-04-05T11:56:17.495Z,64.03
2019-04-05T11:58:49.175Z,59.00
2019-04-05T12:01:41.436Z,57.10
2019-04-05T12:04:12.154Z,56.28
2019-04-05T12:06:44.516Z,57.13
2019-04-05T12:09:15.142Z,54.90
2019-04-05T12:11:46.984Z,52.62
2019-04-05T12:14:29.551Z,59.50
2019-04-05T12:16:49.921Z,60.25
2019-04-05T12:19:20.520Z,59.90
2019-04-05T12:21:52.696Z,56.42
2019-04-05T12:24:23.387Z,53.50
2019-04-05T12:26:54.068Z,54.63
2019-04-05T12:29:26.594Z,51.33
2019-04-05T12:31:59.689Z,54.08
2019-04-05T12:34:32.860Z,53.28
2019-04-05T12:37:03.521Z,54.42
2019-04-05T12:39:37.103Z,54.65
2019-04-05T12:42:11.927Z,56.37
2019-04-05T12:44:44.996Z,54.03
2019-04-05T12:47:15.869Z,54.40
2019-04-05T12:49:46.890Z,54.05
2019-04-05T12:52:22.967Z,51.08
2019-04-05T12:54:54.721Z,50.98
2019-04-05T12:57:23.555Z,50.30
2019-04-05T12:59:56.555Z,52.50
2019-04-05T13:02:33.342Z,52.43
2019-04-05T13:04:59.957Z,49.48
2019-04-05T13:07:34.917Z,53.58
2019-04-05T13:10:05.316Z,53.63
2019-04-05T13:12:36.054Z,50.23
2019-04-05T13:15:13.877Z,52.92
2019-04-05T13:17:40.704Z,49.98
2019-04-05T13:20:12.019Z,49.42
2019-04-05T13:22:42.672Z,57.13
2019-04-05T13:25:13.325Z,51.83
2019-04-05T13:27:43.940Z,49.45
2019-04-05T13:30:18.308Z,51.63
2019-04-05T13:32:48.117Z,51.88
2019-04-05T13:35:18.856Z,47.83
2019-04-05T13:37:49.575Z,49.50
2019-04-05T13:40:20.381Z,52.98
2019-04-05T13:42:52.115Z,50.17
2019-04-05T13:45:22.955Z,47.87
2019-04-05T13:47:53.748Z,50.10
2019-04-05T13:50:24.523Z,51.15
2019-04-05T13:52:55.217Z,53.08
2019-04-05T13:55:25.810Z,50.83
2019-04-05T13:57:56.395Z,46.77
2019-04-05T14:00:27.157Z,49.70
2019-04-05T14:02:57.769Z,46.95
2019-04-05T14:05:29.550Z,48.83
2019-04-05T14:08:09.829Z,46.13
2019-04-05T14:10:33.761Z,47.25
2019-04-05T14:13:04.538Z,48.05
2019-04-05T14:15:35.332Z,48.52
2019-04-05T14:18:05.949Z,50.43
2019-04-05T14:20:36.534Z,53.40
2019-04-05T14:23:08.602Z,48.50
2019-04-05T14:25:59.971Z,44.88
2019-04-05T14:28:32.382Z,53.00
2019-04-05T14:31:04.062Z,45.70
2019-04-05T14:33:34.817Z,50.20
2019-04-05T14:36:05.603Z,54.48
2019-04-05T14:38:36.217Z,51.10
2019-04-05T14:41:07.124Z,46.70
2019-04-05T14:43:38.012Z,45.67
2019-04-05T14:46:08.693Z,43.08
2019-04-05T14:48:39.961Z,42.75
2019-04-05T14:51:12.432Z,42.80
2019-04-05T14:53:43.028Z,46.45
2019-04-05T14:56:14.866Z,46.75
2019-04-05T14:58:45.554Z,47.50
2019-04-05T15:01:17.645Z,45.50
2019-04-05T15:03:50.211Z,44.08
2019-04-05T15:06:20.921Z,46.15
2019-04-05T15:08:52.310Z,44.60
2019-04-05T15:11:23.310Z,44.98
2019-04-05T15:13:56.605Z,49.00
2019-04-05T15:16:27.283Z,46.98
2019-04-05T15:18:57.933Z,43.90
2019-04-05T15:21:28.606Z,43.35
2019-04-05T15:23:59.247Z,45.08
2019-04-05T15:26:29.892Z,42.05
2019-04-05T15:29:00.489Z,41.70
2019-04-05T15:31:32.081Z,45.77
2019-04-05T15:34:02.775Z,46.23
2019-04-05T15:36:33.401Z,39.65
2019-04-05T15:39:05.861Z,42.53
2019-04-05T15:41:37.747Z,47.95
2019-04-05T15:44:08.312Z,44.20
2019-04-05T15:46:38.908Z,46.53
2019-04-05T15:49:09.611Z,45.05
2019-04-05T15:51:41.704Z,42.35
2019-04-05T15:54:12.300Z,43.30
2019-04-05T15:56:42.928Z,40.40
2019-04-05T15:59:13.532Z,44.20
2019-04-05T16:01:45.245Z,43.42
2019-04-05T16:04:16.911Z,41.15
2019-04-05T16:06:47.724Z,41.00
2019-04-05T16:09:18.765Z,38.75
2019-04-05T16:11:49.495Z,44.50
2019-04-05T16:14:21.824Z,40.38
2019-04-05T16:16:53.799Z,44.27
2019-04-05T16:19:24.968Z,38.83
2019-04-05T16:21:55.901Z,40.98
2019-04-05T16:24:26.691Z,43.38
2019-04-05T16:26:57.674Z,38.53
2019-04-05T16:29:28.350Z,39.88
2019-04-05T16:32:00.855Z,44.90
2019-04-05T16:34:33.339Z,40.78
2019-04-05T16:37:07.813Z,40.63
2019-04-05T16:39:39.661Z,40.38
2019-04-05T16:42:10.513Z,43.70
2019-04-05T16:44:41.560Z,40.50
2019-04-05T16:47:12.316Z,38.63
2019-04-05T16:49:44.691Z,39.70
2019-04-05T16:52:15.306Z,41.08
2019-04-05T16:54:47.851Z,42.23
2019-04-05T16:57:18.487Z,44.27
2019-04-05T16:59:50.900Z,39.95
2019-04-05T17:02:21.791Z,40.90
2019-04-05T17:04:52.452Z,39.00
2019-04-05T17:07:24.633Z,43.28
2019-04-05T17:09:55.415Z,40.50
2019-04-05T17:12:26.138Z,38.90
2019-04-05T17:14:56.731Z,39.42
2019-04-05T17:17:27.364Z,39.88
2019-04-05T17:19:58.003Z,44.75
2019-04-05T17:22:28.858Z,38.17
2019-04-05T17:24:59.464Z,40.75
2019-04-05T17:27:30.017Z,40.52
2019-04-05T17:30:00.643Z,43.68
2019-04-05T17:32:31.365Z,42.85
2019-04-05T17:35:02.007Z,40.50
2019-04-05T17:37:32.616Z,41.18
2019-04-05T17:40:03.504Z,41.83
2019-04-05T17:42:34.933Z,40.30
2019-04-05T17:45:06.874Z,43.10
2019-04-05T17:47:37.451Z,38.00
2019-04-05T17:50:10.702Z,41.68
2019-04-05T17:52:41.147Z,39.67
2019-04-05T17:55:11.785Z,38.50
2019-04-05T17:57:42.456Z,37.85
2019-04-05T18:00:18.415Z,38.97
2019-04-05T18:02:49.480Z,41.92
2019-04-05T18:05:20.104Z,39.78
2019-04-05T18:07:50.820Z,40.30
2019-04-05T18:10:21.544Z,43.23
2019-04-05T18:12:52.104Z,40.85
2019-04-05T18:15:22.754Z,42.80
2019-04-05T18:17:53.334Z,40.58
2019-04-05T18:20:23.958Z,42.35
2019-04-05T18:22:54.667Z,41.70
2019-04-05T18:25:25.303Z,39.63
2019-04-05T18:27:55.896Z,41.40
2019-04-05T18:30:26.673Z,40.30
2019-04-05T18:32:57.392Z,41.30
2019-04-05T18:35:28.083Z,39.70
2019-04-05T18:38:00.215Z,36.95
2019-04-05T18:40:39.921Z,40.45
2019-04-05T18:43:06.117Z,41.85
2019-04-05T18:45:36.716Z,41.00
2019-04-05T18:48:09.180Z,41.48
2019-04-05T18:50:41.320Z,42.25
2019-04-05T18:53:13.771Z,41.42
2019-04-05T18:55:44.410Z,41.02
2019-04-05T18:58:16.165Z,38.30
2019-04-05T19:00:46.795Z,40.10
2019-04-05T19:03:17.463Z,39.10
2019-04-05T19:05:48.151Z,38.92
2019-04-05T19:08:18.740Z,41.15
2019-04-05T19:10:49.476Z,39.45
2019-04-05T19:13:20.170Z,42.17
2019-04-05T19:15:50.794Z,40.33
2019-04-05T19:18:21.571Z,41.30
2019-04-05T19:20:52.330Z,40.92
2019-04-05T19:23:22.907Z,41.60
2019-04-05T19:25:53.573Z,38.00
2019-04-05T19:28:24.143Z,43.33
2019-04-05T19:48:41.659Z,40.48
2019-04-05T19:51:12.323Z,38.90
2019-04-05T19:53:43.101Z,42.75
2019-04-05T19:56:13.867Z,42.33
2019-04-05T19:58:44.438Z,41.68
2019-04-05T20:01:15.303Z,39.03
2019-04-05T20:03:47.342Z,39.95
2019-04-05T20:06:18.011Z,38.63
2019-04-05T20:08:50.469Z,36.05
2019-04-05T20:11:21.183Z,37.60
2019-04-05T20:13:51.763Z,35.43
2019-04-05T20:16:22.551Z,38.70
2019-04-05T20:18:53.237Z,37.35
2019-04-05T20:21:23.845Z,39.60
2019-04-05T20:23:54.489Z,37.78
2019-04-05T20:26:26.681Z,36.90
2019-04-05T20:28:58.311Z,38.48
2019-04-05T20:31:30.006Z,39.35
2019-04-05T20:34:00.732Z,38.30
2019-04-05T20:36:31.492Z,38.63
2019-04-05T20:39:02.097Z,40.33
2019-04-05T20:41:32.770Z,36.38
2019-04-05T20:44:03.384Z,35.98
2019-04-05T20:46:33.981Z,38.80
2019-04-05T20:49:05.987Z,36.13
2019-04-05T20:51:36.704Z,38.10
2019-04-05T20:54:07.506Z,36.33
2019-04-05T20:56:38.293Z,37.85
2019-04-05T20:59:09.025Z,34.90
2019-04-05T21:01:39.744Z,36.03
2019-04-05T21:04:10.340Z,36.17
2019-04-05T21:06:41.035Z,34.98
2019-04-05T21:09:11.947Z,34.92
2019-04-05T21:11:42.535Z,35.08
2019-04-05T21:14:13.265Z,36.38
2019-04-05T21:16:44.039Z,32.58
2019-04-05T21:19:14.656Z,30.62
2019-04-05T21:21:46.741Z,33.02
2019-04-05T21:24:17.564Z,33.45
2019-04-05T21:26:48.161Z,34.80
2019-04-05T21:29:18.927Z,33.83
2019-04-05T21:31:49.551Z,32.53
2019-04-05T21:34:20.195Z,31.30
2019-04-05T21:36:51.035Z,33.42
2019-04-05T21:39:21.654Z,33.90
2019-04-05T21:41:52.262Z,33.90
2019-04-05T21:44:22.947Z,32.42
2019-04-05T21:46:53.582Z,33.78
2019-04-05T21:49:24.317Z,33.18
2019-04-05T21:51:55.937Z,33.22
2019-04-05T21:54:26.637Z,30.52
2019-04-05T21:56:57.420Z,33.18
2019-04-05T21:59:28.123Z,34.05
2019-04-05T22:02:00.167Z,33.80
2019-04-05T22:04:30.787Z,32.48
2019-04-05T22:07:01.456Z,31.10
2019-04-05T22:09:33.470Z,32.67
2019-04-05T22:12:10.614Z,33.35
2019-04-05T22:14:41.405Z,33.98
2019-04-05T22:17:12.007Z,30.88
2019-04-05T22:19:42.652Z,30.08
2019-04-05T22:22:13.294Z,33.58
2019-04-05T22:24:45.111Z,33.92
2019-04-05T22:27:16.828Z,31.75
2019-04-05T22:29:48.950Z,31.93
2019-04-05T22:32:19.852Z,31.07
2019-04-05T22:34:51.554Z,33.60
2019-04-05T22:37:22.147Z,33.55
2019-04-05T22:39:52.875Z,31.25
2019-04-05T22:42:23.494Z,31.87
2019-04-05T22:44:55.591Z,33.25
2019-04-05T22:47:27.187Z,35.63
2019-04-05T22:49:57.812Z,34.58
2019-04-05T22:52:28.416Z,34.15
2019-04-05T22:55:10.087Z,33.45
2019-04-05T22:57:31.512Z,32.48
2019-04-05T23:00:02.249Z,35.20
2019-04-05T23:02:32.948Z,33.02
2019-04-05T23:05:05.292Z,36.25
2019-04-05T23:07:37.098Z,34.30
2019-04-05T23:10:08.856Z,32.65
2019-04-05T23:12:39.615Z,32.78
2019-04-05T23:15:10.556Z,33.48
2019-04-05T23:17:41.193Z,34.88
2019-04-05T23:20:12.929Z,36.10
2019-04-05T23:22:45.127Z,33.40
2019-04-05T23:25:21.785Z,33.78
2019-04-05T23:27:48.204Z,31.93
2019-04-05T23:30:20.444Z,32.80
2019-04-05T23:32:51.116Z,34.08
2019-04-05T23:35:23.632Z,33.63
2019-04-05T23:37:54.166Z,34.45
2019-04-05T23:40:25.882Z,32.85
2019-04-05T23:42:56.515Z,36.05
2019-04-05T23:45:27.083Z,35.05
2019-04-05T23:47:57.792Z,30.85
2019-04-05T23:50:29.889Z,31.57
2019-04-05T23:53:00.520Z,34.55
2019-04-05T23:55:33.518Z,35.30
2019-04-05T23:58:03.575Z,32.90
